createdAt,value
2018-04-18T00:00:32.156Z,7.46
2018-04-18T00:01:32.103Z,7.49
2018-04-18T00:02:32.131Z,7.67
2018-04-18T00:03:32.098Z,7.52
2018-04-18T00:04:32.124Z,7.85
2018-04-18T00:05:32.120Z,7.82
2018-04-18T00:06:32.096Z,7.89
2018-04-18T00:07:32.106Z,7.99
2018-04-18T00:08:32.110Z,8.02
2018-04-18T00:09:32.117Z,8
2018-04-18T00:10:32.112Z,7.84
2018-04-18T00:11:32.122Z,7.73
2018-04-18T00:12:32.110Z,7.95
2018-04-18T00:13:32.136Z,7.75
2018-04-18T00:14:32.134Z,7.83
2018-04-18T00:15:32.097Z,7.82
2018-04-18T00:16:32.104Z,7.91
2018-04-18T00:17:32.119Z,7.71
2018-04-18T00:18:32.087Z,7.77
2018-04-18T00:19:32.226Z,7.82
2018-04-18T00:20:32.094Z,7.76
2018-04-18T00:21:32.119Z,8.05
2018-04-18T00:22:32.111Z,7.95
2018-04-18T00:23:32.114Z,7.99
2018-04-18T00:24:32.109Z,7.96
2018-04-18T00:25:32.099Z,8.03
2018-04-18T00:26:32.247Z,8.11
2018-04-18T00:27:32.113Z,8.19
2018-04-18T00:28:32.177Z,8.15
2018-04-18T00:29:32.296Z,8.19
2018-04-18T00:30:32.197Z,8.06
2018-04-18T00:31:32.208Z,8.12
2018-04-18T00:32:32.212Z,8.02
2018-04-18T00:33:32.091Z,7.97
2018-04-18T00:34:32.205Z,8.05
2018-04-18T00:35:32.212Z,7.95
2018-04-18T00:36:32.078Z,7.96
2018-04-18T00:37:32.114Z,7.84
2018-04-18T00:38:32.088Z,7.89
2018-04-18T00:39:32.111Z,7.86
2018-04-18T00:40:32.114Z,7.93
2018-04-18T00:41:32.209Z,7.73
2018-04-18T00:42:32.221Z,7.98
2018-04-18T00:43:32.114Z,7.83
2018-04-18T00:44:32.221Z,7.71
2018-04-18T00:45:32.109Z,7.98
2018-04-18T00:46:32.109Z,7.93
2018-04-18T00:47:32.086Z,7.8
2018-04-18T00:48:32.150Z,7.93
2018-04-18T00:49:32.103Z,7.79
2018-04-18T00:50:32.097Z,7.88
2018-04-18T00:51:32.210Z,7.8
2018-04-18T00:52:32.078Z,7.89
2018-04-18T00:53:32.101Z,7.8
2018-04-18T00:54:32.084Z,7.76
2018-04-18T00:55:32.069Z,7.86
2018-04-18T00:56:32.249Z,7.91
2018-04-18T00:57:32.114Z,7.86
2018-04-18T00:58:32.065Z,7.91
2018-04-18T00:59:32.092Z,7.91
2018-04-18T01:00:32.108Z,7.78
2018-04-18T01:01:32.094Z,7.88
2018-04-18T01:02:32.099Z,7.81
2018-04-18T01:03:32.088Z,7.67
2018-04-18T01:04:32.207Z,7.82
2018-04-18T01:05:32.103Z,7.84
2018-04-18T01:06:32.080Z,7.85
2018-04-18T01:07:32.076Z,7.74
2018-04-18T01:08:32.095Z,7.67
2018-04-18T01:09:32.308Z,7.78
2018-04-18T01:10:32.096Z,7.82
2018-04-18T01:11:32.116Z,7.72
2018-04-18T01:12:32.080Z,7.86
2018-04-18T01:13:32.092Z,7.85
2018-04-18T01:14:32.067Z,7.91
2018-04-18T01:15:32.091Z,7.92
2018-04-18T01:16:32.108Z,8.01
2018-04-18T01:17:32.066Z,8
2018-04-18T01:18:32.071Z,8.04
2018-04-18T01:19:32.071Z,7.98
2018-04-18T01:20:32.106Z,8.02
2018-04-18T01:21:32.082Z,8.02
2018-04-18T01:22:32.067Z,7.98
2018-04-18T01:23:32.101Z,7.99
2018-04-18T01:24:32.053Z,7.8
2018-04-18T01:25:32.073Z,7.81
2018-04-18T01:26:32.098Z,7.9
2018-04-18T01:27:32.066Z,8.02
2018-04-18T01:28:32.048Z,8.01
2018-04-18T01:29:32.078Z,8.03
2018-04-18T01:30:32.111Z,7.95
2018-04-18T01:31:32.099Z,7.95
2018-04-18T01:32:32.099Z,7.89
2018-04-18T01:33:32.092Z,7.9
2018-04-18T01:34:32.076Z,7.93
2018-04-18T01:35:32.081Z,7.88
2018-04-18T01:36:32.090Z,7.85
2018-04-18T01:37:32.102Z,7.73
2018-04-18T01:38:32.083Z,7.61
2018-04-18T01:39:32.045Z,7.77
2018-04-18T01:40:32.090Z,7.79
2018-04-18T01:41:32.076Z,7.76
2018-04-18T01:42:32.065Z,7.77
2018-04-18T01:43:32.079Z,7.74
2018-04-18T01:44:32.062Z,7.79
2018-04-18T01:45:32.104Z,7.73
2018-04-18T01:46:32.079Z,7.72
2018-04-18T01:47:32.065Z,7.72
2018-04-18T01:48:32.173Z,7.7
2018-04-18T01:49:32.112Z,7.72
2018-04-18T01:50:32.082Z,7.72
2018-04-18T01:51:32.135Z,7.67
2018-04-18T01:52:32.051Z,7.63
2018-04-18T01:53:32.060Z,7.56
2018-04-18T01:54:32.042Z,7.63
2018-04-18T01:55:32.061Z,7.63
2018-04-18T01:56:32.055Z,7.55
2018-04-18T01:57:32.042Z,7.61
2018-04-18T01:58:32.118Z,7.65
2018-04-18T01:59:32.099Z,7.62
2018-04-18T02:00:32.044Z,7.62
2018-04-18T02:01:32.048Z,7.63
2018-04-18T02:02:32.073Z,7.68
2018-04-18T02:03:32.051Z,7.56
2018-04-18T02:04:32.057Z,7.71
2018-04-18T02:05:32.084Z,7.7
2018-04-18T02:06:32.061Z,7.67
2018-04-18T02:07:32.047Z,7.65
2018-04-18T02:08:32.024Z,7.48
2018-04-18T02:09:32.041Z,7.52
2018-04-18T02:10:32.062Z,7.68
2018-04-18T02:11:32.077Z,7.56
2018-04-18T02:12:32.098Z,7.69
2018-04-18T02:13:32.037Z,7.68
2018-04-18T02:14:32.033Z,7.67
2018-04-18T02:15:32.051Z,7.68
2018-04-18T02:16:32.067Z,7.71
2018-04-18T02:17:32.040Z,7.66
2018-04-18T02:18:32.039Z,7.5
2018-04-18T02:19:32.037Z,7.51
2018-04-18T02:20:32.051Z,7.54
2018-04-18T02:21:32.048Z,7.45
2018-04-18T02:22:32.037Z,7.58
2018-04-18T02:23:32.058Z,7.66
2018-04-18T02:24:32.072Z,7.62
2018-04-18T02:25:32.038Z,7.64
2018-04-18T02:26:32.053Z,7.63
2018-04-18T02:27:32.022Z,7.64
2018-04-18T02:28:32.027Z,7.53
2018-04-18T02:29:32.030Z,7.32
2018-04-18T02:30:32.082Z,7.33
2018-04-18T02:31:32.105Z,7.55
2018-04-18T02:32:32.059Z,7.76
2018-04-18T02:33:32.052Z,7.68
2018-04-18T02:34:32.060Z,7.68
2018-04-18T02:35:32.058Z,7.64
2018-04-18T02:36:32.031Z,7.64
2018-04-18T02:37:32.053Z,7.71
2018-04-18T02:38:32.129Z,7.7
2018-04-18T02:39:32.023Z,7.65
2018-04-18T02:40:32.046Z,7.56
2018-04-18T02:41:32.055Z,7.63
2018-04-18T02:42:32.049Z,7.68
2018-04-18T02:43:32.159Z,7.72
2018-04-18T02:44:32.042Z,7.69
2018-04-18T02:45:32.029Z,7.67
2018-04-18T02:46:32.291Z,7.71
2018-04-18T02:47:32.045Z,7.71
2018-04-18T02:48:32.025Z,7.73
2018-04-18T02:49:32.018Z,7.65
2018-04-18T02:50:32.049Z,7.51
2018-04-18T02:51:32.097Z,7.57
2018-04-18T02:52:32.071Z,7.48
2018-04-18T02:53:32.028Z,7.42
2018-04-18T02:54:32.020Z,7.62
2018-04-18T02:55:32.049Z,7.63
2018-04-18T02:56:32.155Z,7.56
2018-04-18T02:57:32.074Z,7.61
2018-04-18T02:58:32.008Z,7.48
2018-04-18T02:59:32.028Z,7.57
2018-04-18T03:00:32.043Z,7.58
2018-04-18T03:01:32.059Z,7.61
2018-04-18T03:02:32.032Z,7.71
2018-04-18T03:03:32.061Z,7.61
2018-04-18T03:04:32.042Z,7.44
2018-04-18T03:05:32.024Z,7.51
2018-04-18T03:06:32.094Z,7.63
2018-04-18T03:07:32.055Z,7.69
2018-04-18T03:08:32.040Z,7.56
2018-04-18T03:09:32.024Z,7.44
2018-04-18T03:10:32.042Z,7.56
2018-04-18T03:11:32.050Z,7.5
2018-04-18T03:12:32.014Z,7.63
2018-04-18T03:13:32.052Z,7.64
2018-04-18T03:14:32.007Z,7.56
2018-04-18T03:15:32.011Z,7.68
2018-04-18T03:16:32.052Z,7.63
2018-04-18T03:17:32.282Z,7.66
2018-04-18T03:18:32.081Z,7.56
2018-04-18T03:19:32.049Z,7.47
2018-04-18T03:20:32.019Z,7.6
2018-04-18T03:21:32.018Z,7.41
2018-04-18T03:22:32.033Z,7.56
2018-04-18T03:23:32.031Z,7.56
2018-04-18T03:24:32.022Z,7.39
2018-04-18T03:25:32.030Z,7.5
2018-04-18T03:26:32.295Z,7.39
2018-04-18T03:27:32.043Z,7.55
2018-04-18T03:28:32.022Z,7.6
2018-04-18T03:29:32.001Z,7.35
2018-04-18T03:30:32.013Z,7.6
2018-04-18T03:31:32.014Z,7.56
2018-04-18T03:32:32.051Z,7.47
2018-04-18T03:33:32.050Z,7.6
2018-04-18T03:34:32.021Z,7.5
2018-04-18T03:35:32.002Z,7.38
2018-04-18T03:36:31.991Z,7.5
2018-04-18T03:37:32.038Z,7.47
2018-04-18T03:38:32.029Z,7.59
2018-04-18T03:39:32.001Z,7.46
2018-04-18T03:40:31.993Z,7.48
2018-04-18T03:41:31.983Z,7.55
2018-04-18T03:42:32.021Z,7.63
2018-04-18T03:43:32.187Z,7.58
2018-04-18T03:44:32.005Z,7.4
2018-04-18T03:45:32.018Z,7.53
2018-04-18T03:46:32.001Z,7.6
2018-04-18T03:47:32.265Z,7.49
2018-04-18T03:48:32.025Z,7.56
2018-04-18T03:49:32.016Z,7.5
2018-04-18T03:50:32.009Z,7.52
2018-04-18T03:51:32.017Z,7.5
2018-04-18T03:52:32.053Z,7.56
2018-04-18T03:53:31.999Z,7.66
2018-04-18T03:54:32.338Z,7.65
2018-04-18T03:55:31.977Z,7.56
2018-04-18T03:56:32.016Z,7.51
2018-04-18T03:57:32.023Z,7.58
2018-04-18T03:58:31.997Z,7.6
2018-04-18T03:59:32.011Z,7.51
2018-04-18T04:00:31.985Z,7.46
2018-04-18T04:01:31.979Z,7.46
2018-04-18T04:02:32.317Z,7.59
2018-04-18T04:03:31.994Z,7.56
2018-04-18T04:04:32.004Z,7.41
2018-04-18T04:05:32.026Z,7.45
2018-04-18T04:06:32.056Z,7.31
2018-04-18T04:07:32.024Z,7.6
2018-04-18T04:08:31.983Z,7.5
2018-04-18T04:09:32.007Z,7.58
2018-04-18T04:10:32.511Z,7.54
2018-04-18T04:11:31.980Z,7.61
2018-04-18T04:12:32.003Z,7.55
2018-04-18T04:13:32.019Z,7.52
2018-04-18T04:14:32.009Z,7.45
2018-04-18T04:15:32.118Z,7.43
2018-04-18T04:16:32.204Z,7.34
2018-04-18T04:17:31.992Z,7.41
2018-04-18T04:18:31.961Z,7.39
2018-04-18T04:19:32.015Z,7.46
2018-04-18T04:20:31.968Z,7.52
2018-04-18T04:21:31.992Z,7.43
2018-04-18T04:22:31.993Z,7.48
2018-04-18T04:23:32.170Z,7.44
2018-04-18T04:24:32.012Z,7.41
2018-04-18T04:25:31.998Z,7.34
2018-04-18T04:26:31.974Z,7.45
2018-04-18T04:27:31.999Z,7.42
2018-04-18T04:28:32.069Z,7.41
2018-04-18T04:29:31.966Z,7.4
2018-04-18T04:30:31.991Z,7.38
2018-04-18T04:31:32.199Z,7.42
2018-04-18T04:32:31.976Z,7.39
2018-04-18T04:33:31.991Z,7.34
2018-04-18T04:34:31.987Z,7.37
2018-04-18T04:35:32.018Z,7.3
2018-04-18T04:36:31.987Z,7.25
2018-04-18T04:37:31.993Z,7.28
2018-04-18T04:38:31.985Z,7.23
2018-04-18T04:39:31.993Z,7.2
2018-04-18T04:40:31.983Z,7.25
2018-04-18T04:41:32.050Z,7.14
2018-04-18T04:42:31.963Z,7.11
2018-04-18T04:43:32.016Z,7.15
2018-04-18T04:44:32.033Z,7.17
2018-04-18T04:45:31.976Z,7.1
2018-04-18T04:46:31.969Z,7.16
2018-04-18T04:47:31.967Z,7.17
2018-04-18T04:48:32.025Z,7.1
2018-04-18T04:49:31.989Z,7.04
2018-04-18T04:50:31.962Z,7.11
2018-04-18T04:51:31.983Z,7.13
2018-04-18T04:52:31.995Z,7.02
2018-04-18T04:53:31.984Z,7.15
2018-04-18T04:54:32.141Z,7.12
2018-04-18T04:55:31.979Z,6.99
2018-04-18T04:56:31.982Z,7.19
2018-04-18T04:57:31.968Z,7.14
2018-04-18T04:58:31.988Z,7.22
2018-04-18T04:59:31.953Z,7.28
2018-04-18T05:00:31.984Z,7.27
2018-04-18T05:01:32.008Z,7.22
2018-04-18T05:02:32.075Z,7.3
2018-04-18T05:03:31.985Z,7.28
2018-04-18T05:04:31.998Z,7.25
2018-04-18T05:05:31.995Z,7.32
2018-04-18T05:06:31.958Z,7.15
2018-04-18T05:07:32.014Z,7.15
2018-04-18T05:08:31.981Z,7.21
2018-04-18T05:09:31.982Z,7.08
2018-04-18T05:10:31.967Z,7.42
2018-04-18T05:11:31.954Z,7.47
2018-04-18T05:12:31.936Z,7.29
2018-04-18T05:13:31.968Z,7.21
2018-04-18T05:14:32.120Z,7.12
2018-04-18T05:15:32.019Z,7.55
2018-04-18T05:16:31.972Z,7.6
2018-04-18T05:17:31.962Z,7.63
2018-04-18T05:18:32.087Z,7.62
2018-04-18T05:19:32.037Z,7.58
2018-04-18T05:20:31.958Z,7.5
2018-04-18T05:21:31.964Z,7.52
2018-04-18T05:22:31.947Z,7.69
2018-04-18T05:23:31.972Z,7.69
2018-04-18T05:24:31.983Z,7.5
2018-04-18T05:25:32.127Z,7.68
2018-04-18T05:26:32.070Z,7.56
2018-04-18T05:27:32.056Z,7.38
2018-04-18T05:28:31.979Z,7.77
2018-04-18T05:29:31.941Z,7.62
2018-04-18T05:30:32.020Z,7.76
2018-04-18T05:31:31.966Z,7.79
2018-04-18T05:32:32.012Z,7.59
2018-04-18T05:33:32.873Z,7.69
2018-04-18T05:34:32.012Z,7.7
2018-04-18T05:35:31.960Z,7.58
2018-04-18T05:36:31.956Z,7.55
2018-04-18T05:37:31.960Z,7.65
2018-04-18T05:38:31.988Z,7.74
2018-04-18T05:39:31.952Z,7.73
2018-04-18T05:40:31.971Z,7.76
2018-04-18T05:41:31.960Z,7.7
2018-04-18T05:42:31.970Z,7.77
2018-04-18T05:43:31.983Z,7.86
2018-04-18T05:44:31.952Z,8
2018-04-18T05:45:31.943Z,7.99
2018-04-18T05:46:31.978Z,7.94
2018-04-18T05:47:31.987Z,7.86
2018-04-18T05:48:32.004Z,7.85
2018-04-18T05:49:32.057Z,7.84
2018-04-18T05:50:31.957Z,7.84
2018-04-18T05:51:32.030Z,7.99
2018-04-18T05:52:31.948Z,7.84
2018-04-18T05:53:32.077Z,7.95
2018-04-18T05:54:31.954Z,7.76
2018-04-18T05:55:32.039Z,7.71
2018-04-18T05:56:31.954Z,7.79
2018-04-18T05:57:32.014Z,7.84
2018-04-18T05:58:32.098Z,7.98
2018-04-18T05:59:32.001Z,7.95
2018-04-18T06:00:32.079Z,8.06
2018-04-18T06:01:31.963Z,7.97
2018-04-18T06:02:32.006Z,8.11
2018-04-18T06:03:32.000Z,8.15
2018-04-18T06:04:32.014Z,8.26
2018-04-18T06:05:32.006Z,8.19
2018-04-18T06:06:31.967Z,8.07
2018-04-18T06:07:32.133Z,8.2
2018-04-18T06:08:32.020Z,8.3
2018-04-18T06:09:32.082Z,8.29
2018-04-18T06:10:32.034Z,8.19
2018-04-18T06:11:31.935Z,8.2
2018-04-18T06:12:31.982Z,8.21
2018-04-18T06:13:32.057Z,8.11
2018-04-18T06:14:31.916Z,8.18
2018-04-18T06:15:31.910Z,8.32
2018-04-18T06:16:31.925Z,8.36
2018-04-18T06:17:31.925Z,8.26
2018-04-18T06:18:31.966Z,8.27
2018-04-18T06:19:31.963Z,8.33
2018-04-18T06:20:31.919Z,8.34
2018-04-18T06:21:31.953Z,8.21
2018-04-18T06:22:31.924Z,8.31
2018-04-18T06:23:31.945Z,8.45
2018-04-18T06:24:32.034Z,8.49
2018-04-18T06:25:32.247Z,8.43
2018-04-18T06:26:31.928Z,8.43
2018-04-18T06:27:32.180Z,8.35
2018-04-18T06:28:32.034Z,8.37
2018-04-18T06:29:31.977Z,8.45
2018-04-18T06:30:32.108Z,8.45
2018-04-18T06:31:31.972Z,8.46
2018-04-18T06:32:31.975Z,8.41
2018-04-18T06:33:32.010Z,8.42
2018-04-18T06:34:31.948Z,8.46
2018-04-18T06:35:31.916Z,8.51
2018-04-18T06:36:31.927Z,8.5
2018-04-18T06:37:31.906Z,8.46
2018-04-18T06:38:31.959Z,8.49
2018-04-18T06:39:31.945Z,8.59
2018-04-18T06:40:31.939Z,8.6
2018-04-18T06:41:31.953Z,8.57
2018-04-18T06:42:31.927Z,8.48
2018-04-18T06:43:32.050Z,8.5
2018-04-18T06:44:31.902Z,8.48
2018-04-18T06:45:31.957Z,8.43
2018-04-18T06:46:31.925Z,8.48
2018-04-18T06:47:31.957Z,8.43
2018-04-18T06:48:31.948Z,8.5
2018-04-18T06:49:31.931Z,8.54
2018-04-18T06:50:31.897Z,8.74
2018-04-18T06:51:31.906Z,8.62
2018-04-18T06:52:31.895Z,8.62
2018-04-18T06:53:31.942Z,8.92
2018-04-18T06:54:32.011Z,8.92
2018-04-18T06:55:31.978Z,8.78
2018-04-18T06:56:31.906Z,8.86
2018-04-18T06:57:31.935Z,8.9
2018-04-18T06:58:31.925Z,8.81
2018-04-18T06:59:32.037Z,8.8
2018-04-18T07:00:32.008Z,8.81
2018-04-18T07:01:31.900Z,8.82
2018-04-18T07:02:31.970Z,8.66
2018-04-18T07:03:32.049Z,8.75
2018-04-18T07:04:31.921Z,8.73
2018-04-18T07:05:32.007Z,8.69
2018-04-18T07:06:31.909Z,8.95
2018-04-18T07:07:31.939Z,8.82
2018-04-18T07:08:31.985Z,8.92
2018-04-18T07:09:31.995Z,8.8
2018-04-18T07:10:31.879Z,8.81
2018-04-18T07:11:31.896Z,8.85
2018-04-18T07:12:31.891Z,8.89
2018-04-18T07:13:31.938Z,8.72
2018-04-18T07:14:31.995Z,8.88
2018-04-18T07:15:31.905Z,9.13
2018-04-18T07:16:31.914Z,9.17
2018-04-18T07:17:31.992Z,9.06
2018-04-18T07:18:31.972Z,9.21
2018-04-18T07:19:31.887Z,9.17
2018-04-18T07:20:31.975Z,9.02
2018-04-18T07:21:31.872Z,9.16
2018-04-18T07:22:32.049Z,9.01
2018-04-18T07:23:31.937Z,8.97
2018-04-18T07:24:31.879Z,8.91
2018-04-18T07:25:31.924Z,8.99
2018-04-18T07:26:31.986Z,9.08
2018-04-18T07:27:31.896Z,9.2
2018-04-18T07:28:31.909Z,9.25
2018-04-18T07:29:31.940Z,9.02
2018-04-18T07:30:31.908Z,8.86
2018-04-18T07:31:31.950Z,8.98
2018-04-18T07:32:31.882Z,9.13
2018-04-18T07:33:32.013Z,9.12
2018-04-18T07:34:31.933Z,9.01
2018-04-18T07:35:31.893Z,8.97
2018-04-18T07:36:31.978Z,8.92
2018-04-18T07:37:32.052Z,9.15
2018-04-18T07:38:31.892Z,9.09
2018-04-18T07:39:31.896Z,9.16
2018-04-18T07:40:31.948Z,9.21
2018-04-18T07:41:31.940Z,9.16
2018-04-18T07:42:31.888Z,9.16
2018-04-18T07:43:31.933Z,9.1
2018-04-18T07:44:31.932Z,9.18
2018-04-18T07:45:31.914Z,9.18
2018-04-18T07:46:31.890Z,9.1
2018-04-18T07:47:31.872Z,9.2
2018-04-18T07:48:31.866Z,9.14
2018-04-18T07:49:31.923Z,9.1
2018-04-18T07:50:31.898Z,9.25
2018-04-18T07:51:31.934Z,9.38
2018-04-18T07:52:31.865Z,9.31
2018-04-18T07:53:31.935Z,9.41
2018-04-18T07:54:31.893Z,9.12
2018-04-18T07:55:31.870Z,9.17
2018-04-18T07:56:31.890Z,9.2
2018-04-18T07:57:31.909Z,9.23
2018-04-18T07:58:31.893Z,9.32
2018-04-18T07:59:31.878Z,9.35
2018-04-18T08:00:32.390Z,9.49
2018-04-18T08:01:31.868Z,9.42
2018-04-18T08:02:31.892Z,9.31
2018-04-18T08:03:31.983Z,9.35
2018-04-18T08:04:31.885Z,9.49
2018-04-18T08:05:32.068Z,9.41
2018-04-18T08:06:31.880Z,9.59
2018-04-18T08:07:31.913Z,9.47
2018-04-18T08:08:32.060Z,9.4
2018-04-18T08:09:31.881Z,9.44
2018-04-18T08:10:31.913Z,9.41
2018-04-18T08:11:31.886Z,9.34
2018-04-18T08:12:31.855Z,9.44
2018-04-18T08:13:31.865Z,9.42
2018-04-18T08:14:31.859Z,9.21
2018-04-18T08:15:31.948Z,9.28
2018-04-18T08:16:31.872Z,9.32
2018-04-18T08:17:32.022Z,9.28
2018-04-18T08:18:31.844Z,9.27
2018-04-18T08:19:31.887Z,9.41
2018-04-18T08:20:31.909Z,9.33
2018-04-18T08:21:31.866Z,9.62
2018-04-18T08:22:32.010Z,9.41
2018-04-18T08:23:31.896Z,9.63
2018-04-18T08:24:31.839Z,9.45
2018-04-18T08:25:31.936Z,9.54
2018-04-18T08:26:31.883Z,9.72
2018-04-18T08:27:31.931Z,9.78
2018-04-18T08:28:31.988Z,10.02
2018-04-18T08:29:31.990Z,9.9
2018-04-18T08:30:31.866Z,9.98
2018-04-18T08:31:31.857Z,9.87
2018-04-18T08:32:31.914Z,9.76
2018-04-18T08:33:31.863Z,9.75
2018-04-18T08:34:31.901Z,9.54
2018-04-18T08:35:31.900Z,10.02
2018-04-18T08:36:31.852Z,9.84
2018-04-18T08:37:31.873Z,9.92
2018-04-18T08:38:31.869Z,9.89
2018-04-18T08:39:31.926Z,9.78
2018-04-18T08:40:31.869Z,9.63
2018-04-18T08:41:31.948Z,9.71
2018-04-18T08:42:31.863Z,9.56
2018-04-18T08:43:31.827Z,9.67
2018-04-18T08:44:31.857Z,9.83
2018-04-18T08:45:31.875Z,9.69
2018-04-18T08:46:31.890Z,9.7
2018-04-18T08:47:31.847Z,9.79
2018-04-18T08:48:31.853Z,9.67
2018-04-18T08:49:31.871Z,9.75
2018-04-18T08:50:32.088Z,9.86
2018-04-18T08:51:31.848Z,9.94
2018-04-18T08:52:31.840Z,9.83
2018-04-18T08:53:31.856Z,9.94
2018-04-18T08:54:31.818Z,9.88
2018-04-18T08:55:31.858Z,9.56
2018-04-18T08:56:31.829Z,9.41
2018-04-18T08:57:31.841Z,9.55
2018-04-18T08:58:31.841Z,9.86
2018-04-18T08:59:31.824Z,9.89
2018-04-18T09:00:31.833Z,9.88
2018-04-18T09:01:31.847Z,9.81
2018-04-18T09:02:31.843Z,9.9
2018-04-18T09:03:31.817Z,10.05
2018-04-18T09:04:31.855Z,9.98
2018-04-18T09:05:31.827Z,9.98
2018-04-18T09:06:31.841Z,10.18
2018-04-18T09:07:31.825Z,9.96
2018-04-18T09:08:31.804Z,10.09
2018-04-18T09:09:31.809Z,10.16
2018-04-18T09:10:32.170Z,10.05
2018-04-18T09:11:31.823Z,9.95
2018-04-18T09:12:31.823Z,9.74
2018-04-18T09:13:31.850Z,9.84
2018-04-18T09:14:32.047Z,9.66
2018-04-18T09:15:31.813Z,9.99
2018-04-18T09:16:31.955Z,9.85
2018-04-18T09:17:31.824Z,9.79
2018-04-18T09:18:31.976Z,9.8
2018-04-18T09:19:31.910Z,9.75
2018-04-18T09:20:31.843Z,9.73
2018-04-18T09:21:32.052Z,9.57
2018-04-18T09:22:31.835Z,9.6
2018-04-18T09:23:31.807Z,9.79
2018-04-18T09:24:31.817Z,9.65
2018-04-18T09:25:31.822Z,9.85
2018-04-18T09:26:31.826Z,9.94
2018-04-18T09:27:31.833Z,10.09
2018-04-18T09:28:32.045Z,10.02
2018-04-18T09:29:31.914Z,10.03
2018-04-18T09:30:31.844Z,9.91
2018-04-18T09:31:31.869Z,10.04
2018-04-18T09:32:31.818Z,9.79
2018-04-18T09:33:31.865Z,9.58
2018-04-18T09:34:31.953Z,9.86
2018-04-18T09:35:31.808Z,9.82
2018-04-18T09:36:31.855Z,10.05
2018-04-18T09:37:31.875Z,10.24
2018-04-18T09:38:31.963Z,10.03
2018-04-18T09:39:31.844Z,10.19
2018-04-18T09:40:31.835Z,10.12
2018-04-18T09:41:31.848Z,10.23
2018-04-18T09:42:31.812Z,10.28
2018-04-18T09:43:31.874Z,10.28
2018-04-18T09:44:31.874Z,10.02
2018-04-18T09:45:31.825Z,10.21
2018-04-18T09:46:31.881Z,9.94
2018-04-18T09:47:31.796Z,9.8
2018-04-18T09:48:31.810Z,9.65
2018-04-18T09:49:31.809Z,9.58
2018-04-18T09:50:31.803Z,9.94
2018-04-18T09:51:31.801Z,10.09
2018-04-18T09:52:31.808Z,10.4
2018-04-18T09:53:31.801Z,9.98
2018-04-18T09:54:31.805Z,9.46
2018-04-18T09:55:31.792Z,9.42
2018-04-18T09:56:31.836Z,9.59
2018-04-18T09:57:31.843Z,9.57
2018-04-18T09:58:32.152Z,9.88
2018-04-18T09:59:31.884Z,9.93
2018-04-18T10:00:31.819Z,10.06
2018-04-18T10:01:31.843Z,10.04
2018-04-18T10:02:31.819Z,9.73
2018-04-18T10:03:31.841Z,10.03
2018-04-18T10:04:31.850Z,10.13
2018-04-18T10:05:31.841Z,9.99
2018-04-18T10:06:31.829Z,9.83
2018-04-18T10:07:31.809Z,9.71
2018-04-18T10:08:31.814Z,9.52
2018-04-18T10:09:31.796Z,9.42
2018-04-18T10:10:32.144Z,9.59
2018-04-18T10:11:31.836Z,9.41
2018-04-18T10:12:31.801Z,9.77
2018-04-18T10:13:31.823Z,9.67
2018-04-18T10:14:31.803Z,9.54
2018-04-18T10:15:31.821Z,9.52
2018-04-18T10:16:31.804Z,9.77
2018-04-18T10:17:31.856Z,10
2018-04-18T10:18:31.800Z,9.38
2018-04-18T10:19:31.985Z,9.63
2018-04-18T10:20:31.859Z,9.49
2018-04-18T10:21:31.834Z,9.4
2018-04-18T10:22:31.811Z,9.49
2018-04-18T10:23:31.786Z,9.6
2018-04-18T10:24:31.795Z,9.67
2018-04-18T10:25:31.805Z,9.83
2018-04-18T10:26:31.827Z,9.54
2018-04-18T10:27:31.801Z,9.77
2018-04-18T10:28:31.849Z,10.16
2018-04-18T10:29:31.806Z,10.1
2018-04-18T10:30:31.797Z,9.76
2018-04-18T10:31:31.823Z,9.99
2018-04-18T10:32:31.799Z,9.63
2018-04-18T10:33:31.844Z,8.98
2018-04-18T10:34:31.778Z,9.04
2018-04-18T10:35:32.002Z,9.13
2018-04-18T10:36:31.834Z,8.66
2018-04-18T10:37:31.826Z,8.57
2018-04-18T10:38:31.911Z,8.93
2018-04-18T10:39:31.980Z,9
2018-04-18T10:40:31.795Z,8.96
2018-04-18T10:41:31.778Z,8.94
2018-04-18T10:42:31.806Z,9.08
2018-04-18T10:43:31.800Z,9.16
2018-04-18T10:44:31.813Z,8.59
2018-04-18T10:45:31.826Z,8.27
2018-04-18T10:46:31.769Z,8.78
2018-04-18T10:47:31.864Z,8.97
2018-04-18T10:48:31.802Z,8.53
2018-04-18T10:49:31.810Z,8.23
2018-04-18T10:50:31.804Z,8.21
2018-04-18T10:51:31.814Z,8.19
2018-04-18T10:52:31.807Z,8.03
2018-04-18T10:53:31.783Z,7.88
2018-04-18T10:54:31.902Z,7.8
2018-04-18T10:55:31.808Z,7.96
2018-04-18T10:56:31.808Z,8.37
2018-04-18T10:57:31.844Z,8.14
2018-04-18T10:58:32.100Z,8.27
2018-04-18T10:59:31.819Z,8.04
2018-04-18T11:00:31.773Z,7.85
2018-04-18T11:01:31.793Z,8.17
2018-04-18T11:02:31.840Z,7.28
2018-04-18T11:03:31.848Z,7.21
2018-04-18T11:04:31.764Z,7.1
2018-04-18T11:05:31.823Z,7.34
2018-04-18T11:06:31.772Z,7.57
2018-04-18T11:07:31.798Z,7.56
2018-04-18T11:08:31.791Z,7.85
2018-04-18T11:09:31.797Z,7.35
2018-04-18T11:10:31.784Z,7.8
2018-04-18T11:11:31.790Z,7.78
2018-04-18T11:12:31.778Z,7.67
2018-04-18T11:13:31.789Z,7.7
2018-04-18T11:14:31.781Z,7.7
2018-04-18T11:15:31.777Z,8.19
2018-04-18T11:16:31.796Z,8.23
2018-04-18T11:17:31.793Z,8.06
2018-04-18T11:18:31.763Z,7.96
2018-04-18T11:19:31.756Z,8.23
2018-04-18T11:20:31.947Z,7.93
2018-04-18T11:21:31.779Z,7.83
2018-04-18T11:22:31.803Z,7.79
2018-04-18T11:23:31.802Z,7.25
2018-04-18T11:24:31.767Z,7.78
2018-04-18T11:25:31.782Z,7.46
2018-04-18T11:26:31.879Z,7.38
2018-04-18T11:27:31.801Z,7.47
2018-04-18T11:28:32.040Z,7.54
2018-04-18T11:29:31.808Z,7.15
2018-04-18T11:30:31.760Z,7.53
2018-04-18T11:31:31.978Z,7.66
2018-04-18T11:32:31.852Z,7.98
2018-04-18T11:33:31.923Z,8.26
2018-04-18T11:34:31.779Z,8.16
2018-04-18T11:35:31.803Z,8.12
2018-04-18T11:36:31.753Z,8.4
2018-04-18T11:37:31.789Z,8.3
2018-04-18T11:38:31.787Z,8.45
2018-04-18T11:39:31.837Z,8.66
2018-04-18T11:40:31.795Z,8.81
2018-04-18T11:41:31.775Z,7.9
2018-04-18T11:42:31.837Z,8.03
2018-04-18T11:43:31.773Z,7.91
2018-04-18T11:44:31.808Z,7.93
2018-04-18T11:45:32.015Z,8.57
2018-04-18T11:46:31.757Z,8.59
2018-04-18T11:47:31.858Z,8.24
2018-04-18T11:48:31.767Z,8.38
2018-04-18T11:49:31.989Z,8.62
2018-04-18T11:50:31.822Z,8.98
2018-04-18T11:51:31.863Z,7.86
2018-04-18T11:52:31.810Z,7.86
2018-04-18T11:53:31.791Z,7.97
2018-04-18T11:54:31.804Z,7.79
2018-04-18T11:55:31.762Z,7.75
2018-04-18T11:56:31.764Z,7.47
2018-04-18T11:57:32.048Z,7.46
2018-04-18T11:58:31.789Z,6.97
2018-04-18T11:59:31.785Z,7.39
2018-04-18T12:00:31.806Z,7.86
2018-04-18T12:01:31.765Z,8
2018-04-18T12:02:31.829Z,7.93
2018-04-18T12:03:32.517Z,7.76
2018-04-18T12:04:31.819Z,7.92
2018-04-18T12:05:31.780Z,7.9
2018-04-18T12:06:31.788Z,7.41
2018-04-18T12:07:31.799Z,6.99
2018-04-18T12:08:31.800Z,5.8
2018-04-18T12:09:31.762Z,6.71
2018-04-18T12:10:31.826Z,6.75
2018-04-18T12:11:32.013Z,5.95
2018-04-18T12:12:31.803Z,6.15
2018-04-18T12:13:31.780Z,6.27
2018-04-18T12:14:31.747Z,6.88
2018-04-18T12:15:31.795Z,6.79
2018-04-18T12:16:31.806Z,7.24
2018-04-18T12:17:31.793Z,7.31
2018-04-18T12:18:31.954Z,7.62
2018-04-18T12:19:31.794Z,7.18
2018-04-18T12:20:31.763Z,7.24
2018-04-18T12:21:31.826Z,7.27
2018-04-18T12:22:31.933Z,7.33
2018-04-18T12:23:31.898Z,7.21
2018-04-18T12:24:31.878Z,7.43
2018-04-18T12:25:31.834Z,7.68
2018-04-18T12:26:31.846Z,7.28
2018-04-18T12:27:31.819Z,7.03
2018-04-18T12:28:31.883Z,6.75
2018-04-18T12:29:31.757Z,7.21
2018-04-18T12:30:31.893Z,6.78
2018-04-18T12:31:31.775Z,6.97
2018-04-18T12:32:31.761Z,7.26
2018-04-18T12:33:31.916Z,6.78
2018-04-18T12:34:31.967Z,6.97
2018-04-18T12:35:31.864Z,6.47
2018-04-18T12:36:31.817Z,7.02
2018-04-18T12:37:31.831Z,7.16
2018-04-18T12:38:31.824Z,7.36
2018-04-18T12:39:31.843Z,6.85
2018-04-18T12:40:31.841Z,7.23
2018-04-18T12:41:31.914Z,6.62
2018-04-18T12:42:31.767Z,6.74
2018-04-18T12:43:31.776Z,6.82
2018-04-18T12:44:31.752Z,6.78
2018-04-18T12:45:31.741Z,6.73
2018-04-18T12:46:31.791Z,6.79
2018-04-18T12:47:31.797Z,7.1
2018-04-18T12:48:31.803Z,7.41
2018-04-18T12:49:31.743Z,7.74
2018-04-18T12:50:31.819Z,7.6
2018-04-18T12:51:31.821Z,7.61
2018-04-18T12:52:31.771Z,7.57
2018-04-18T12:53:31.767Z,7.66
2018-04-18T12:54:31.872Z,7.46
2018-04-18T12:55:31.734Z,7.5
2018-04-18T12:56:31.850Z,7.93
2018-04-18T12:57:32.112Z,8.39
2018-04-18T12:58:31.858Z,8.07
2018-04-18T12:59:31.779Z,8.16
2018-04-18T13:00:31.774Z,7.91
2018-04-18T13:01:31.786Z,7.6
2018-04-18T13:02:31.725Z,7.77
2018-04-18T13:03:31.794Z,8.25
2018-04-18T13:04:31.798Z,8.28
2018-04-18T13:05:31.736Z,8.07
2018-04-18T13:06:32.017Z,8.01
2018-04-18T13:07:31.726Z,8.14
2018-04-18T13:08:31.889Z,8.24
2018-04-18T13:09:31.844Z,8.08
2018-04-18T13:10:31.784Z,8.06
2018-04-18T13:11:31.797Z,8.12
2018-04-18T13:12:31.737Z,8.17
2018-04-18T13:13:31.861Z,8.52
2018-04-18T13:14:31.715Z,8.33
2018-04-18T13:15:31.742Z,8.36
2018-04-18T13:16:31.724Z,8.57
2018-04-18T13:17:31.799Z,8.61
2018-04-18T13:18:31.778Z,8.59
2018-04-18T13:19:31.723Z,8.33
2018-04-18T13:20:31.780Z,8.34